Main page
METAR-TAF:

METAR-TAF

Airports :

Jerez Airport

Jerez de la Frontera, Spain

latitude: 36-45N, longitude: 006-04W, elevation: 27 m

Current weather observation

The report was made 29 minutes ago, at 02:00 UTC
Wind 7 kt from the East/Northeast
Temperature 20°C
Humidity 43%
Pressure 1019 hPa
Visibility 10 km or more
no clouds below 1500 m and no cumulonimbus

METAR: LEJR 260200Z AUTO 06007KT CAVOK 20/07 Q1019

Time: 04:29 (02:29 UTC)

Forecast

The report was made 3 hours and 29 minutes ago, at 23:00 UTC
Forecast valid from 26 at 00 UTC to 26 at 24 UTC
Wind 9 kt from the East/Southeast
Visibility 10 km or more
no clouds below 1500 m and no cumulonimbus
Probability 40% :
Temporary
from 26 at 08 UTC to 26 at 19 UTC
Wind 15 kt from the East with gusts up to 25 kt

TAF: LEJR 252300Z 2600/2624 11009KT CAVOK TX32/2614Z TN17/2605Z PROB40 TEMPO 2608/2619 10015G25KT

Weather observations and forecasts of more than 4000 airports (METAR and TAF reports).

The available stations are represented by yellow and red dots on the map.

Hover mouse over dot to see the name of the station.

Then click to see weather observations and forecasts.

To change the map : click on the green buttons with a black cross to zoom in, on the green button with a dash to zoom out, or on the green arrows for adjacent maps.


METAR-TAF: